sensor_id;sensor_type;location;lat;lon;timestamp;temperature;humidity
21085;DHT22;34247;50.064;19.970;2022-09-17T00:02:10;29.70;29.10
21085;DHT22;34247;50.064;19.970;2022-09-17T00:03:22;29.70;29.10
21085;DHT22;34247;50.064;19.970;2022-09-17T00:04:27;29.70;29.20
21085;DHT22;34247;50.064;19.970;2022-09-17T00:06:19;29.70;29.10
21085;DHT22;34247;50.064;19.970;2022-09-17T00:07:42;29.70;29.10
21085;DHT22;34247;50.064;19.970;2022-09-17T00:08:47;29.70;29.20
21085;DHT22;34247;50.064;19.970;2022-09-17T00:10:14;29.70;29.20
21085;DHT22;34247;50.064;19.970;2022-09-17T00:12:12;29.60;29.20
21085;DHT22;34247;50.064;19.970;2022-09-17T00:13:18;29.70;29.20
21085;DHT22;34247;50.064;19.970;2022-09-17T00:14:24;29.70;29.30
21085;DHT22;34247;50.064;19.970;2022-09-17T00:15:41;29.70;29.30
21085;DHT22;34247;50.064;19.970;2022-09-17T00:17:03;29.70;29.30
21085;DHT22;34247;50.064;19.970;2022-09-17T00:18:16;29.60;29.20
21085;DHT22;34247;50.064;19.970;2022-09-17T00:20:11;29.70;29.20
21085;DHT22;34247;50.064;19.970;2022-09-17T00:21:46;29.60;29.20
21085;DHT22;34247;50.064;19.970;2022-09-17T00:22:55;29.60;29.20
21085;DHT22;34247;50.064;19.970;2022-09-17T00:24:09;29.60;29.20
21085;DHT22;34247;50.064;19.970;2022-09-17T00:25:17;29.60;29.70
21085;DHT22;34247;50.064;19.970;2022-09-17T00:26:22;29.60;29.20
21085;DHT22;34247;50.064;19.970;2022-09-17T00:27:35;29.60;29.30
21085;DHT22;34247;50.064;19.970;2022-09-17T00:28:44;29.60;29.20
21085;DHT22;34247;50.064;19.970;2022-09-17T00:29:54;29.60;29.20
21085;DHT22;34247;50.064;19.970;2022-09-17T00:30:58;29.60;29.30
21085;DHT22;34247;50.064;19.970;2022-09-17T00:32:04;29.60;29.30
21085;DHT22;34247;50.064;19.970;2022-09-17T00:33:18;29.60;29.30
21085;DHT22;34247;50.064;19.970;2022-09-17T00:34:35;29.60;29.20
21085;DHT22;34247;50.064;19.970;2022-09-17T00:35:39;29.60;29.20
21085;DHT22;34247;50.064;19.970;2022-09-17T00:37:02;29.60;29.30
21085;DHT22;34247;50.064;19.970;2022-09-17T00:38:21;29.60;29.20
21085;DHT22;34247;50.064;19.970;2022-09-17T00:39:43;29.50;29.20
21085;DHT22;34247;50.064;19.970;2022-09-17T00:41:00;29.60;29.30
21085;DHT22;34247;50.064;19.970;2022-09-17T00:42:21;29.60;29.30
21085;DHT22;34247;50.064;19.970;2022-09-17T00:44:52;29.60;29.30
21085;DHT22;34247;50.064;19.970;2022-09-17T00:45:59;29.60;29.30
21085;DHT22;34247;50.064;19.970;2022-09-17T00:47:04;29.60;29.20
21085;DHT22;34247;50.064;19.970;2022-09-17T00:48:27;29.60;29.20
21085;DHT22;34247;50.064;19.970;2022-09-17T00:50:11;29.60;29.20
21085;DHT22;34247;50.064;19.970;2022-09-17T00:51:26;29.60;29.20
21085;DHT22;34247;50.064;19.970;2022-09-17T00:52:59;29.60;29.20
21085;DHT22;34247;50.064;19.970;2022-09-17T00:54:10;29.60;29.20
21085;DHT22;34247;50.064;19.970;2022-09-17T00:55:26;29.60;29.30
21085;DHT22;34247;50.064;19.970;2022-09-17T00:56:43;29.50;29.30
21085;DHT22;34247;50.064;19.970;2022-09-17T00:58:09;29.50;29.20
21085;DHT22;34247;50.064;19.970;2022-09-17T00:59:15;29.50;29.30
21085;DHT22;34247;50.064;19.970;2022-09-17T01:00:20;29.50;29.30
21085;DHT22;34247;50.064;19.970;2022-09-17T01:01:29;29.50;29.30
21085;DHT22;34247;50.064;19.970;2022-09-17T01:02:35;29.50;29.20
21085;DHT22;34247;50.064;19.970;2022-09-17T01:04:16;29.50;29.30
21085;DHT22;34247;50.064;19.970;2022-09-17T01:06:11;29.50;29.30
21085;DHT22;34247;50.064;19.970;2022-09-17T01:17:10;29.40;29.20
21085;DHT22;34247;50.064;19.970;2022-09-17T01:29:13;29.40;29.20
21085;DHT22;34247;50.064;19.970;2022-09-17T01:35:52;29.30;29.10
21085;DHT22;34247;50.064;19.970;2022-09-17T01:37:30;29.30;29.10
21085;DHT22;34247;50.064;19.970;2022-09-17T01:40:24;29.30;29.10
21085;DHT22;34247;50.064;19.970;2022-09-17T01:41:32;29.30;29.10
21085;DHT22;34247;50.064;19.970;2022-09-17T01:43:20;29.30;29.20
21085;DHT22;34247;50.064;19.970;2022-09-17T01:45:15;29.30;29.20
21085;DHT22;34247;50.064;19.970;2022-09-17T01:46:39;29.30;29.10
21085;DHT22;34247;50.064;19.970;2022-09-17T01:48:06;29.30;29.10
21085;DHT22;34247;50.064;19.970;2022-09-17T01:49:20;29.30;29.10
21085;DHT22;34247;50.064;19.970;2022-09-17T01:50:55;29.30;29.10
21085;DHT22;34247;50.064;19.970;2022-09-17T01:52:31;29.30;29.10
21085;DHT22;34247;50.064;19.970;2022-09-17T01:54:05;29.30;29.10
21085;DHT22;34247;50.064;19.970;2022-09-17T01:55:15;29.30;29.10
21085;DHT22;34247;50.064;19.970;2022-09-17T01:56:27;29.30;29.10
21085;DHT22;34247;50.064;19.970;2022-09-17T01:57:56;29.30;29.20
21085;DHT22;34247;50.064;19.970;2022-09-17T02:00:00;29.30;29.10
21085;DHT22;34247;50.064;19.970;2022-09-17T02:01:23;29.30;29.20
21085;DHT22;34247;50.064;19.970;2022-09-17T02:04:41;29.30;29.10
21085;DHT22;34247;50.064;19.970;2022-09-17T02:05:55;29.30;29.10
21085;DHT22;34247;50.064;19.970;2022-09-17T02:07:08;29.20;29.10
21085;DHT22;34247;50.064;19.970;2022-09-17T02:08:38;29.20;29.10
21085;DHT22;34247;50.064;19.970;2022-09-17T02:10:01;29.20;29.10
21085;DHT22;34247;50.064;19.970;2022-09-17T02:11:13;29.20;29.10
21085;DHT22;34247;50.064;19.970;2022-09-17T02:12:26;29.20;29.10
21085;DHT22;34247;50.064;19.970;2022-09-17T02:15:18;29.20;29.10
21085;DHT22;34247;50.064;19.970;2022-09-17T02:16:33;29.20;29.10
21085;DHT22;34247;50.064;19.970;2022-09-17T02:18:29;29.20;29.10
21085;DHT22;34247;50.064;19.970;2022-09-17T02:20:05;29.20;29.10
21085;DHT22;34247;50.064;19.970;2022-09-17T02:23:14;29.20;29.20
21085;DHT22;34247;50.064;19.970;2022-09-17T02:25:26;29.20;29.20
21085;DHT22;34247;50.064;19.970;2022-09-17T02:27:18;29.20;29.20
21085;DHT22;34247;50.064;19.970;2022-09-17T02:28:52;29.10;29.20
21085;DHT22;34247;50.064;19.970;2022-09-17T02:30:20;29.10;29.30
21085;DHT22;34247;50.064;19.970;2022-09-17T02:31:43;29.10;29.30
21085;DHT22;34247;50.064;19.970;2022-09-17T02:35:29;29.20;29.20
21085;DHT22;34247;50.064;19.970;2022-09-17T02:36:37;29.10;29.20
21085;DHT22;34247;50.064;19.970;2022-09-17T02:37:45;29.10;29.20
21085;DHT22;34247;50.064;19.970;2022-09-17T02:39:30;29.10;29.20
21085;DHT22;34247;50.064;19.970;2022-09-17T02:41:39;29.10;29.20
21085;DHT22;34247;50.064;19.970;2022-09-17T02:46:51;29.10;29.30
21085;DHT22;34247;50.064;19.970;2022-09-17T02:50:23;29.10;29.30
21085;DHT22;34247;50.064;19.970;2022-09-17T02:51:44;29.10;29.30
21085;DHT22;34247;50.064;19.970;2022-09-17T02:53:43;29.10;29.30
21085;DHT22;34247;50.064;19.970;2022-09-17T02:55:22;29.00;29.20
21085;DHT22;34247;50.064;19.970;2022-09-17T02:57:28;29.00;29.20
21085;DHT22;34247;50.064;19.970;2022-09-17T03:00:42;29.10;29.30
21085;DHT22;34247;50.064;19.970;2022-09-17T03:03:44;29.00;29.20
21085;DHT22;34247;50.064;19.970;2022-09-17T03:04:50;29.00;29.20
21085;DHT22;34247;50.064;19.970;2022-09-17T03:05:59;29.00;29.20
21085;DHT22;34247;50.064;19.970;2022-09-17T03:07:06;29.00;29.20
21085;DHT22;34247;50.064;19.970;2022-09-17T03:08:16;29.00;29.20
21085;DHT22;34247;50.064;19.970;2022-09-17T03:09:32;29.00;29.20
21085;DHT22;34247;50.064;19.970;2022-09-17T03:10:48;29.00;29.20
21085;DHT22;34247;50.064;19.970;2022-09-17T03:11:55;29.00;29.30
21085;DHT22;34247;50.064;19.970;2022-09-17T03:13:25;29.00;29.20
21085;DHT22;34247;50.064;19.970;2022-09-17T03:14:33;29.00;29.20
21085;DHT22;34247;50.064;19.970;2022-09-17T03:15:38;29.00;29.20
21085;DHT22;34247;50.064;19.970;2022-09-17T03:16:42;29.00;29.20
21085;DHT22;34247;50.064;19.970;2022-09-17T03:17:55;29.00;29.30
21085;DHT22;34247;50.064;19.970;2022-09-17T03:19:00;29.00;29.30
21085;DHT22;34247;50.064;19.970;2022-09-17T03:20:39;29.00;29.40
21085;DHT22;34247;50.064;19.970;2022-09-17T03:21:44;29.00;29.30
21085;DHT22;34247;50.064;19.970;2022-09-17T03:23:00;29.00;29.40
21085;DHT22;34247;50.064;19.970;2022-09-17T03:24:06;29.00;29.90
21085;DHT22;34247;50.064;19.970;2022-09-17T03:25:24;29.00;29.40
21085;DHT22;34247;50.064;19.970;2022-09-17T03:26:37;29.00;29.30
21085;DHT22;34247;50.064;19.970;2022-09-17T03:27:51;29.00;29.20
21085;DHT22;34247;50.064;19.970;2022-09-17T03:28:58;29.00;29.20
21085;DHT22;34247;50.064;19.970;2022-09-17T03:30:24;29.00;29.30
21085;DHT22;34247;50.064;19.970;2022-09-17T03:31:42;29.00;29.40
21085;DHT22;34247;50.064;19.970;2022-09-17T03:32:50;29.00;29.40
21085;DHT22;34247;50.064;19.970;2022-09-17T03:33:56;29.00;29.40
21085;DHT22;34247;50.064;19.970;2022-09-17T03:35:03;29.00;29.40
21085;DHT22;34247;50.064;19.970;2022-09-17T03:36:10;29.00;29.40
21085;DHT22;34247;50.064;19.970;2022-09-17T03:37:26;29.00;29.50
21085;DHT22;34247;50.064;19.970;2022-09-17T03:38:45;29.00;29.50
21085;DHT22;34247;50.064;19.970;2022-09-17T03:39:49;29.00;29.50
21085;DHT22;34247;50.064;19.970;2022-09-17T03:41:43;29.00;29.50
21085;DHT22;34247;50.064;19.970;2022-09-17T03:43:01;28.90;29.50
21085;DHT22;34247;50.064;19.970;2022-09-17T03:44:06;28.90;29.40
21085;DHT22;34247;50.064;19.970;2022-09-17T03:45:13;28.90;29.50
21085;DHT22;34247;50.064;19.970;2022-09-17T03:46:19;28.90;29.50
21085;DHT22;34247;50.064;19.970;2022-09-17T03:47:24;28.90;29.50
21085;DHT22;34247;50.064;19.970;2022-09-17T03:48:51;28.90;29.50
21085;DHT22;34247;50.064;19.970;2022-09-17T03:50:11;28.90;29.50
21085;DHT22;34247;50.064;19.970;2022-09-17T03:51:18;28.90;29.50
21085;DHT22;34247;50.064;19.970;2022-09-17T03:52:23;28.90;29.50
21085;DHT22;34247;50.064;19.970;2022-09-17T03:53:56;28.90;29.50
21085;DHT22;34247;50.064;19.970;2022-09-17T03:55:28;28.90;29.50
21085;DHT22;34247;50.064;19.970;2022-09-17T03:56:46;28.90;29.60
21085;DHT22;34247;50.064;19.970;2022-09-17T03:58:11;28.90;29.60
21085;DHT22;34247;50.064;19.970;2022-09-17T03:59:15;28.90;29.60
21085;DHT22;34247;50.064;19.970;2022-09-17T04:00:46;28.90;29.60
21085;DHT22;34247;50.064;19.970;2022-09-17T04:01:56;28.90;29.60
21085;DHT22;34247;50.064;19.970;2022-09-17T04:15:18;28.80;29.50
21085;DHT22;34247;50.064;19.970;2022-09-17T04:17:06;28.90;29.60
21085;DHT22;34247;50.064;19.970;2022-09-17T04:18:12;28.80;29.50
21085;DHT22;34247;50.064;19.970;2022-09-17T04:20:50;28.90;29.50
21085;DHT22;34247;50.064;19.970;2022-09-17T04:22:10;28.80;29.40
21085;DHT22;34247;50.064;19.970;2022-09-17T04:23:15;28.80;30.00
21085;DHT22;34247;50.064;19.970;2022-09-17T04:24:22;28.80;29.40
21085;DHT22;34247;50.064;19.970;2022-09-17T04:25:27;28.80;29.40
21085;DHT22;34247;50.064;19.970;2022-09-17T04:26:33;28.80;29.50
21085;DHT22;34247;50.064;19.970;2022-09-17T04:27:38;28.80;29.50
21085;DHT22;34247;50.064;19.970;2022-09-17T04:28:44;28.90;29.50
21085;DHT22;34247;50.064;19.970;2022-09-17T04:29:49;28.90;29.40
21085;DHT22;34247;50.064;19.970;2022-09-17T04:30:54;28.90;29.40
21085;DHT22;34247;50.064;19.970;2022-09-17T04:32:01;28.80;29.30
21085;DHT22;34247;50.064;19.970;2022-09-17T04:33:13;28.80;29.30
21085;DHT22;34247;50.064;19.970;2022-09-17T04:34:21;28.80;29.30
21085;DHT22;34247;50.064;19.970;2022-09-17T04:35:28;28.80;29.30
21085;DHT22;34247;50.064;19.970;2022-09-17T04:36:34;28.80;29.30
21085;DHT22;34247;50.064;19.970;2022-09-17T04:37:54;28.80;29.30
21085;DHT22;34247;50.064;19.970;2022-09-17T04:39:02;28.80;29.30
21085;DHT22;34247;50.064;19.970;2022-09-17T04:40:13;28.80;29.30
21085;DHT22;34247;50.064;19.970;2022-09-17T04:41:24;28.80;29.30
21085;DHT22;34247;50.064;19.970;2022-09-17T04:42:35;28.80;29.30
21085;DHT22;34247;50.064;19.970;2022-09-17T04:43:45;28.80;29.20
21085;DHT22;34247;50.064;19.970;2022-09-17T04:44:56;28.80;29.30
21085;DHT22;34247;50.064;19.970;2022-09-17T04:46:14;28.80;29.30
21085;DHT22;34247;50.064;19.970;2022-09-17T04:47:23;28.80;29.30
21085;DHT22;34247;50.064;19.970;2022-09-17T04:48:28;28.80;29.30
21085;DHT22;34247;50.064;19.970;2022-09-17T04:49:37;28.80;29.30
21085;DHT22;34247;50.064;19.970;2022-09-17T04:51:02;28.80;29.30
21085;DHT22;34247;50.064;19.970;2022-09-17T04:54:12;28.80;29.30
21085;DHT22;34247;50.064;19.970;2022-09-17T04:55:20;28.80;29.30
21085;DHT22;34247;50.064;19.970;2022-09-17T04:56:35;28.80;29.30
21085;DHT22;34247;50.064;19.970;2022-09-17T04:57:52;28.90;29.30
21085;DHT22;34247;50.064;19.970;2022-09-17T04:59:06;28.90;29.30
21085;DHT22;34247;50.064;19.970;2022-09-17T05:00:21;28.90;29.30
21085;DHT22;34247;50.064;19.970;2022-09-17T05:01:30;28.80;29.20
21085;DHT22;34247;50.064;19.970;2022-09-17T05:03:41;28.80;29.20
21085;DHT22;34247;50.064;19.970;2022-09-17T05:04:50;28.90;29.30
21085;DHT22;34247;50.064;19.970;2022-09-17T05:05:55;28.80;29.20
21085;DHT22;34247;50.064;19.970;2022-09-17T05:07:10;28.90;29.20
21085;DHT22;34247;50.064;19.970;2022-09-17T05:08:24;28.90;29.30
21085;DHT22;34247;50.064;19.970;2022-09-17T05:09:32;28.90;29.30
21085;DHT22;34247;50.064;19.970;2022-09-17T05:10:51;28.90;29.30
21085;DHT22;34247;50.064;19.970;2022-09-17T05:12:01;28.90;29.30
21085;DHT22;34247;50.064;19.970;2022-09-17T05:13:16;28.90;29.30
21085;DHT22;34247;50.064;19.970;2022-09-17T05:14:36;28.90;29.30
21085;DHT22;34247;50.064;19.970;2022-09-17T05:15:46;28.90;29.30
21085;DHT22;34247;50.064;19.970;2022-09-17T05:17:01;28.90;29.30
21085;DHT22;34247;50.064;19.970;2022-09-17T05:18:06;28.90;29.20
21085;DHT22;34247;50.064;19.970;2022-09-17T05:19:20;28.90;29.20
21085;DHT22;34247;50.064;19.970;2022-09-17T05:20:25;29.00;29.30
21085;DHT22;34247;50.064;19.970;2022-09-17T05:21:45;29.00;29.30
21085;DHT22;34247;50.064;19.970;2022-09-17T05:22:51;29.00;29.30
21085;DHT22;34247;50.064;19.970;2022-09-17T05:24:03;29.00;29.20
21085;DHT22;34247;50.064;19.970;2022-09-17T05:25:10;29.00;29.30
21085;DHT22;34247;50.064;19.970;2022-09-17T05:26:15;29.00;29.30
21085;DHT22;34247;50.064;19.970;2022-09-17T05:27:20;29.00;29.30
21085;DHT22;34247;50.064;19.970;2022-09-17T05:28:31;29.00;29.20
21085;DHT22;34247;50.064;19.970;2022-09-17T05:29:42;29.10;29.30
21085;DHT22;34247;50.064;19.970;2022-09-17T05:30:48;29.10;29.30
21085;DHT22;34247;50.064;19.970;2022-09-17T05:31:56;29.10;29.20
21085;DHT22;34247;50.064;19.970;2022-09-17T05:33:03;29.10;29.20
21085;DHT22;34247;50.064;19.970;2022-09-17T05:34:41;29.10;29.10
21085;DHT22;34247;50.064;19.970;2022-09-17T05:35:50;29.10;29.10
21085;DHT22;34247;50.064;19.970;2022-09-17T05:37:10;29.20;29.10
21085;DHT22;34247;50.064;19.970;2022-09-17T05:38:36;29.20;29.10
21085;DHT22;34247;50.064;19.970;2022-09-17T05:40:10;29.20;29.10
21085;DHT22;34247;50.064;19.970;2022-09-17T05:41:49;29.20;29.00
21085;DHT22;34247;50.064;19.970;2022-09-17T05:43:14;29.30;29.00
21085;DHT22;34247;50.064;19.970;2022-09-17T05:44:34;29.30;29.00
21085;DHT22;34247;50.064;19.970;2022-09-17T05:45:51;29.30;28.90
21085;DHT22;34247;50.064;19.970;2022-09-17T05:47:00;29.40;29.00
21085;DHT22;34247;50.064;19.970;2022-09-17T05:53:19;29.50;28.80
21085;DHT22;34247;50.064;19.970;2022-09-17T05:54:29;29.50;28.70
21085;DHT22;34247;50.064;19.970;2022-09-17T05:55:34;29.50;28.70
21085;DHT22;34247;50.064;19.970;2022-09-17T05:57:01;29.50;28.60
21085;DHT22;34247;50.064;19.970;2022-09-17T05:58:14;29.50;28.60
21085;DHT22;34247;50.064;19.970;2022-09-17T05:59:24;29.50;28.60
21085;DHT22;34247;50.064;19.970;2022-09-17T06:00:31;29.60;28.70
21085;DHT22;34247;50.064;19.970;2022-09-17T06:01:46;29.60;28.70
21085;DHT22;34247;50.064;19.970;2022-09-17T06:02:54;29.60;28.60
21085;DHT22;34247;50.064;19.970;2022-09-17T06:04:01;29.60;28.60
21085;DHT22;34247;50.064;19.970;2022-09-17T06:05:07;29.60;28.50
21085;DHT22;34247;50.064;19.970;2022-09-17T06:06:12;29.60;28.50
21085;DHT22;34247;50.064;19.970;2022-09-17T06:07:16;29.70;28.50
21085;DHT22;34247;50.064;19.970;2022-09-17T06:08:21;29.70;28.50
21085;DHT22;34247;50.064;19.970;2022-09-17T06:09:26;29.70;28.50
21085;DHT22;34247;50.064;19.970;2022-09-17T06:10:30;29.80;28.50
21085;DHT22;34247;50.064;19.970;2022-09-17T06:11:36;29.80;28.50
21085;DHT22;34247;50.064;19.970;2022-09-17T06:12:40;29.80;28.50
21085;DHT22;34247;50.064;19.970;2022-09-17T06:13:53;29.80;28.40
21085;DHT22;34247;50.064;19.970;2022-09-17T06:15:50;29.80;28.30
21085;DHT22;34247;50.064;19.970;2022-09-17T06:17:16;29.90;28.30
21085;DHT22;34247;50.064;19.970;2022-09-17T06:18:27;29.90;28.30
21085;DHT22;34247;50.064;19.970;2022-09-17T06:19:45;29.90;28.30
21085;DHT22;34247;50.064;19.970;2022-09-17T06:21:59;30.00;28.30
21085;DHT22;34247;50.064;19.970;2022-09-17T06:23:09;30.00;28.30
21085;DHT22;34247;50.064;19.970;2022-09-17T06:24:22;30.00;28.20
21085;DHT22;34247;50.064;19.970;2022-09-17T06:25:41;30.10;28.10
21085;DHT22;34247;50.064;19.970;2022-09-17T06:27:12;30.10;28.00
21085;DHT22;34247;50.064;19.970;2022-09-17T06:28:48;30.20;28.10
21085;DHT22;34247;50.064;19.970;2022-09-17T06:29:52;30.20;28.00
21085;DHT22;34247;50.064;19.970;2022-09-17T06:31:04;30.20;28.00
21085;DHT22;34247;50.064;19.970;2022-09-17T06:32:20;30.20;27.90
21085;DHT22;34247;50.064;19.970;2022-09-17T06:33:34;30.30;27.90
21085;DHT22;34247;50.064;19.970;2022-09-17T06:34:42;30.30;27.80
21085;DHT22;34247;50.064;19.970;2022-09-17T06:36:02;30.40;27.70
21085;DHT22;34247;50.064;19.970;2022-09-17T06:37:17;30.40;27.70
21085;DHT22;34247;50.064;19.970;2022-09-17T06:38:21;30.50;27.60
21085;DHT22;34247;50.064;19.970;2022-09-17T06:39:27;30.50;27.60
21085;DHT22;34247;50.064;19.970;2022-09-17T06:40:32;30.50;27.50
21085;DHT22;34247;50.064;19.970;2022-09-17T06:41:37;30.60;27.50
21085;DHT22;34247;50.064;19.970;2022-09-17T06:42:41;30.60;27.50
21085;DHT22;34247;50.064;19.970;2022-09-17T06:43:50;30.60;27.40
21085;DHT22;34247;50.064;19.970;2022-09-17T06:44:56;30.60;27.40
21085;DHT22;34247;50.064;19.970;2022-09-17T06:46:06;30.70;27.40
21085;DHT22;34247;50.064;19.970;2022-09-17T06:47:12;30.70;27.20
21085;DHT22;34247;50.064;19.970;2022-09-17T06:48:36;30.80;27.10
21085;DHT22;34247;50.064;19.970;2022-09-17T06:49:57;30.80;27.00
21085;DHT22;34247;50.064;19.970;2022-09-17T06:51:38;30.80;26.90
21085;DHT22;34247;50.064;19.970;2022-09-17T06:53:02;30.80;26.80
21085;DHT22;34247;50.064;19.970;2022-09-17T08:13:15;31.80;25.00
21085;DHT22;34247;50.064;19.970;2022-09-17T08:15:03;31.70;25.20
21085;DHT22;34247;50.064;19.970;2022-09-17T08:34:08;31.40;25.20
21085;DHT22;34247;50.064;19.970;2022-09-17T08:58:56;31.80;25.00
21085;DHT22;34247;50.064;19.970;2022-09-17T09:09:16;32.10;24.50
21085;DHT22;34247;50.064;19.970;2022-09-17T09:10:29;32.20;24.40
21085;DHT22;34247;50.064;19.970;2022-09-17T09:39:06;33.00;22.90
21085;DHT22;34247;50.064;19.970;2022-09-17T09:40:43;33.00;23.00
21085;DHT22;34247;50.064;19.970;2022-09-17T09:57:44;32.70;23.50
21085;DHT22;34247;50.064;19.970;2022-09-17T09:58:51;32.60;23.60
21085;DHT22;34247;50.064;19.970;2022-09-17T10:03:35;32.50;23.80
21085;DHT22;34247;50.064;19.970;2022-09-17T10:09:23;32.40;23.90
21085;DHT22;34247;50.064;19.970;2022-09-17T10:12:34;32.40;23.70
21085;DHT22;34247;50.064;19.970;2022-09-17T10:20:16;32.40;23.60
21085;DHT22;34247;50.064;19.970;2022-09-17T10:28:58;32.40;23.30
21085;DHT22;34247;50.064;19.970;2022-09-17T10:32:19;32.40;23.20
21085;DHT22;34247;50.064;19.970;2022-09-17T10:35:56;32.40;23.20
21085;DHT22;34247;50.064;19.970;2022-09-17T10:43:21;32.40;23.10
21085;DHT22;34247;50.064;19.970;2022-09-17T10:44:33;32.40;23.00
21085;DHT22;34247;50.064;19.970;2022-09-17T10:48:16;32.40;23.00
21085;DHT22;34247;50.064;19.970;2022-09-17T10:50:00;32.40;23.00
21085;DHT22;34247;50.064;19.970;2022-09-17T11:10:35;32.40;22.30
21085;DHT22;34247;50.064;19.970;2022-09-17T11:22:15;32.40;22.60
21085;DHT22;34247;50.064;19.970;2022-09-17T11:30:24;32.40;22.80
21085;DHT22;34247;50.064;19.970;2022-09-17T11:37:23;32.10;23.20
21085;DHT22;34247;50.064;19.970;2022-09-17T11:38:49;32.10;23.40
21085;DHT22;34247;50.064;19.970;2022-09-17T11:47:47;32.00;23.60
21085;DHT22;34247;50.064;19.970;2022-09-17T11:51:54;31.80;23.70
21085;DHT22;34247;50.064;19.970;2022-09-17T12:09:12;31.40;24.40
21085;DHT22;34247;50.064;19.970;2022-09-17T12:22:31;31.20;24.70
21085;DHT22;34247;50.064;19.970;2022-09-17T12:25:03;31.20;24.70
21085;DHT22;34247;50.064;19.970;2022-09-17T12:27:20;31.10;24.70
21085;DHT22;34247;50.064;19.970;2022-09-17T12:28:34;31.20;24.80
21085;DHT22;34247;50.064;19.970;2022-09-17T12:30:19;31.10;24.80
21085;DHT22;34247;50.064;19.970;2022-09-17T12:31:37;31.10;24.80
21085;DHT22;34247;50.064;19.970;2022-09-17T12:33:35;31.10;24.90
21085;DHT22;34247;50.064;19.970;2022-09-17T12:37:33;31.10;24.90
21085;DHT22;34247;50.064;19.970;2022-09-17T13:03:03;30.90;25.20
21085;DHT22;34247;50.064;19.970;2022-09-17T13:04:45;31.00;25.20
21085;DHT22;34247;50.064;19.970;2022-09-17T13:09:05;31.00;25.30
21085;DHT22;34247;50.064;19.970;2022-09-17T13:12:39;31.10;25.20
21085;DHT22;34247;50.064;19.970;2022-09-17T13:17:42;31.10;25.30
21085;DHT22;34247;50.064;19.970;2022-09-17T13:22:29;31.10;25.50
21085;DHT22;34247;50.064;19.970;2022-09-17T13:23:41;31.00;25.60
21085;DHT22;34247;50.064;19.970;2022-09-17T13:25:05;30.90;25.50
21085;DHT22;34247;50.064;19.970;2022-09-17T13:26:14;30.90;25.50
21085;DHT22;34247;50.064;19.970;2022-09-17T13:27:23;30.90;25.60
21085;DHT22;34247;50.064;19.970;2022-09-17T13:28:37;30.90;25.60
21085;DHT22;34247;50.064;19.970;2022-09-17T13:30:16;30.90;25.70
21085;DHT22;34247;50.064;19.970;2022-09-17T13:33:57;30.90;25.70
21085;DHT22;34247;50.064;19.970;2022-09-17T13:37:56;30.90;25.80
21085;DHT22;34247;50.064;19.970;2022-09-17T13:39:03;30.90;25.90
21085;DHT22;34247;50.064;19.970;2022-09-17T13:40:34;30.90;25.90
21085;DHT22;34247;50.064;19.970;2022-09-17T13:41:41;30.90;25.80
21085;DHT22;34247;50.064;19.970;2022-09-17T13:42:46;30.90;25.80
21085;DHT22;34247;50.064;19.970;2022-09-17T13:43:54;30.90;25.70
21085;DHT22;34247;50.064;19.970;2022-09-17T13:45:10;30.90;25.70
21085;DHT22;34247;50.064;19.970;2022-09-17T13:46:22;31.00;25.70
21085;DHT22;34247;50.064;19.970;2022-09-17T13:47:30;30.90;25.70
21085;DHT22;34247;50.064;19.970;2022-09-17T13:48:42;30.90;25.70
21085;DHT22;34247;50.064;19.970;2022-09-17T13:49:57;31.00;25.80
21085;DHT22;34247;50.064;19.970;2022-09-17T13:52:49;31.00;25.60
21085;DHT22;34247;50.064;19.970;2022-09-17T13:54:01;31.00;25.50
21085;DHT22;34247;50.064;19.970;2022-09-17T13:55:08;31.00;25.50
21085;DHT22;34247;50.064;19.970;2022-09-17T13:56:44;31.00;26.00
21085;DHT22;34247;50.064;19.970;2022-09-17T13:57:50;31.10;25.40
21085;DHT22;34247;50.064;19.970;2022-09-17T13:58:54;31.10;25.30
21085;DHT22;34247;50.064;19.970;2022-09-17T14:05:44;31.10;25.50
21085;DHT22;34247;50.064;19.970;2022-09-17T14:06:56;31.10;25.50
21085;DHT22;34247;50.064;19.970;2022-09-17T14:08:13;31.00;25.60
21085;DHT22;34247;50.064;19.970;2022-09-17T14:09:34;31.10;25.70
21085;DHT22;34247;50.064;19.970;2022-09-17T14:10:49;31.00;25.60
21085;DHT22;34247;50.064;19.970;2022-09-17T14:11:53;31.00;25.50
21085;DHT22;34247;50.064;19.970;2022-09-17T14:13:04;31.10;25.60
21085;DHT22;34247;50.064;19.970;2022-09-17T14:17:52;31.10;25.70
21085;DHT22;34247;50.064;19.970;2022-09-17T14:20:19;31.10;25.60
21085;DHT22;34247;50.064;19.970;2022-09-17T14:21:32;31.10;25.60
21085;DHT22;34247;50.064;19.970;2022-09-17T14:22:37;31.10;25.70
21085;DHT22;34247;50.064;19.970;2022-09-17T14:23:44;31.10;25.60
21085;DHT22;34247;50.064;19.970;2022-09-17T14:24:53;31.10;25.50
21085;DHT22;34247;50.064;19.970;2022-09-17T14:25:57;31.10;25.50
21085;DHT22;34247;50.064;19.970;2022-09-17T14:27:29;31.10;25.60
21085;DHT22;34247;50.064;19.970;2022-09-17T14:28:51;31.20;25.50
21085;DHT22;34247;50.064;19.970;2022-09-17T14:30:22;31.10;25.60
21085;DHT22;34247;50.064;19.970;2022-09-17T14:31:34;31.10;25.60
21085;DHT22;34247;50.064;19.970;2022-09-17T14:34:17;31.10;25.50
21085;DHT22;34247;50.064;19.970;2022-09-17T14:36:52;31.10;25.50
21085;DHT22;34247;50.064;19.970;2022-09-17T14:39:36;31.10;25.60
21085;DHT22;34247;50.064;19.970;2022-09-17T14:40:47;31.10;25.80
21085;DHT22;34247;50.064;19.970;2022-09-17T14:41:55;31.10;25.70
21085;DHT22;34247;50.064;19.970;2022-09-17T14:43:02;31.10;25.70
21085;DHT22;34247;50.064;19.970;2022-09-17T14:44:17;31.10;25.80
21085;DHT22;34247;50.064;19.970;2022-09-17T14:45:35;31.10;25.80
21085;DHT22;34247;50.064;19.970;2022-09-17T14:48:28;31.10;25.70
21085;DHT22;34247;50.064;19.970;2022-09-17T14:49:36;31.10;25.80
21085;DHT22;34247;50.064;19.970;2022-09-17T14:50:43;31.10;25.80
21085;DHT22;34247;50.064;19.970;2022-09-17T14:51:47;31.10;25.80
21085;DHT22;34247;50.064;19.970;2022-09-17T14:52:52;31.10;25.90
21085;DHT22;34247;50.064;19.970;2022-09-17T14:54:07;31.10;25.80
21085;DHT22;34247;50.064;19.970;2022-09-17T14:55:20;31.10;25.80
21085;DHT22;34247;50.064;19.970;2022-09-17T14:56:35;31.10;25.90
21085;DHT22;34247;50.064;19.970;2022-09-17T14:57:55;31.10;25.80
21085;DHT22;34247;50.064;19.970;2022-09-17T14:59:01;31.10;25.90
21085;DHT22;34247;50.064;19.970;2022-09-17T15:00:11;31.10;25.90
21085;DHT22;34247;50.064;19.970;2022-09-17T15:01:28;31.10;26.00
21085;DHT22;34247;50.064;19.970;2022-09-17T15:02:40;31.00;26.00